createdAt,value
2023-04-03T00:01:29.239Z,8.30
2023-04-03T00:03:57.717Z,5.77
2023-04-03T00:06:27.221Z,7.37
2023-04-03T00:08:55.532Z,10.27
2023-04-03T00:11:23.840Z,9.93
2023-04-03T00:13:53.370Z,7.27
2023-04-03T00:16:21.514Z,6.00
2023-04-03T00:18:49.565Z,6.40
2023-04-03T00:21:17.646Z,7.10
2023-04-03T00:23:45.758Z,6.43
2023-04-03T00:26:13.802Z,3.80
2023-04-03T00:28:42.559Z,7.90
2023-04-03T00:31:12.310Z,7.63
2023-04-03T00:33:40.389Z,10.57
2023-04-03T00:36:10.136Z,8.23
2023-04-03T00:38:38.687Z,10.87
2023-04-03T00:41:07.539Z,10.67
2023-04-03T00:43:35.813Z,5.83
2023-04-03T00:46:03.948Z,8.90
2023-04-03T00:48:36.739Z,9.20
2023-04-03T00:51:07.953Z,8.87
2023-04-03T00:53:40.800Z,6.97
2023-04-03T00:56:12.697Z,9.67
2023-04-03T00:58:46.176Z,8.07
2023-04-03T01:01:18.426Z,7.13
2023-04-03T01:03:47.993Z,12.13
2023-04-03T01:06:19.084Z,10.27
2023-04-03T01:08:50.700Z,7.37
2023-04-03T01:11:19.398Z,7.47
2023-04-03T01:13:47.481Z,8.60
2023-04-03T01:16:15.711Z,7.53
2023-04-03T01:18:44.896Z,10.23
2023-04-03T01:21:53.747Z,7.63
2023-04-03T01:24:34.379Z,8.33
2023-04-03T01:27:06.747Z,13.37
2023-04-03T01:29:34.836Z,8.63
2023-04-03T01:32:05.832Z,8.10
2023-04-03T01:34:34.246Z,12.27
2023-04-03T01:37:03.079Z,9.43
2023-04-03T01:39:31.160Z,8.77
2023-04-03T01:42:00.275Z,5.40
2023-04-03T01:44:32.879Z,8.00
2023-04-03T01:47:01.375Z,10.20
2023-04-03T01:49:32.014Z,12.90
2023-04-03T01:52:00.385Z,8.93
2023-04-03T01:54:28.437Z,11.93
2023-04-03T01:56:56.639Z,9.67
2023-04-03T01:59:24.825Z,8.57
2023-04-03T02:01:53.338Z,8.10
2023-04-03T02:04:21.483Z,8.30
2023-04-03T02:06:50.956Z,12.50
2023-04-03T02:09:19.038Z,10.47
2023-04-03T02:11:47.103Z,8.10
2023-04-03T02:14:15.553Z,11.37
2023-04-03T02:16:43.766Z,7.93
2023-04-03T02:19:11.905Z,10.87
2023-04-03T02:21:39.988Z,11.17
2023-04-03T02:24:09.915Z,8.00
2023-04-03T02:26:38.036Z,7.97
2023-04-03T02:29:06.893Z,9.43
2023-04-03T02:31:36.668Z,8.93
2023-04-03T02:34:05.081Z,8.53
2023-04-03T02:36:33.397Z,9.80
2023-04-03T02:39:05.429Z,8.73
2023-04-03T02:41:36.421Z,11.27
2023-04-03T02:44:09.007Z,10.37
2023-04-03T02:46:37.294Z,13.13
2023-04-03T02:49:06.796Z,9.07
2023-04-03T02:51:34.908Z,11.37
2023-04-03T02:54:03.205Z,11.63
2023-04-03T02:56:36.444Z,11.37
2023-04-03T02:59:04.856Z,11.30
2023-04-03T03:01:34.830Z,11.80
2023-04-03T03:04:03.019Z,9.97
2023-04-03T03:06:31.128Z,9.40
2023-04-03T03:08:59.171Z,11.30
2023-04-03T03:11:27.480Z,9.97
2023-04-03T03:13:56.942Z,9.80
2023-04-03T03:16:27.581Z,10.87
2023-04-03T03:18:57.765Z,12.00
2023-04-03T03:21:26.371Z,10.83
2023-04-03T03:23:54.467Z,11.50
2023-04-03T03:26:22.686Z,12.93
2023-04-03T03:28:50.870Z,10.67
2023-04-03T03:31:20.649Z,9.00
2023-04-03T03:33:48.732Z,12.93
2023-04-03T03:36:16.908Z,11.17
2023-04-03T03:38:44.995Z,11.13
2023-04-03T03:41:13.079Z,12.47
2023-04-03T03:43:43.280Z,14.83
2023-04-03T03:46:12.381Z,10.50
2023-04-03T03:48:41.921Z,12.60
2023-04-03T03:51:09.976Z,12.63
2023-04-03T03:53:40.056Z,10.03
2023-04-03T03:56:11.469Z,8.87
2023-04-03T03:58:41.464Z,8.30
2023-04-03T04:01:10.040Z,12.47
2023-04-03T04:03:45.613Z,9.30
2023-04-03T04:06:17.956Z,12.10
2023-04-03T04:08:46.280Z,11.60
2023-04-03T04:11:15.747Z,14.50
2023-04-03T04:13:45.876Z,14.70
2023-04-03T04:16:15.600Z,14.83
2023-04-03T04:18:45.055Z,11.57
2023-04-03T04:21:13.155Z,13.83
2023-04-03T04:23:41.865Z,13.60
2023-04-03T04:26:10.320Z,13.53
2023-04-03T04:28:40.282Z,12.23
2023-04-03T04:31:08.998Z,10.73
2023-04-03T04:33:37.807Z,10.53
2023-04-03T04:36:09.170Z,15.10
2023-04-03T04:38:37.620Z,9.20
2023-04-03T04:41:05.724Z,15.53
2023-04-03T04:43:34.539Z,12.70
2023-04-03T04:46:04.780Z,17.77
2023-04-03T04:48:36.583Z,16.93
2023-04-03T04:51:08.660Z,11.67
2023-04-03T04:53:38.721Z,13.53
2023-04-03T04:56:08.560Z,12.50
2023-04-03T04:58:38.733Z,15.67
2023-04-03T05:01:09.870Z,15.40
2023-04-03T05:03:44.074Z,11.80
2023-04-03T05:06:14.151Z,11.10
2023-04-03T05:08:42.435Z,19.97
2023-04-03T05:11:10.870Z,16.63
2023-04-03T05:13:40.264Z,15.83
2023-04-03T05:16:08.788Z,12.70
2023-04-03T05:18:37.088Z,14.10
2023-04-03T05:21:09.491Z,14.97
2023-04-03T05:23:39.289Z,11.90
2023-04-03T05:26:08.016Z,13.73
2023-04-03T05:28:37.492Z,12.80
2023-04-03T05:31:06.883Z,14.60
2023-04-03T05:33:37.893Z,14.30
2023-04-03T05:36:09.545Z,12.27
2023-04-03T05:38:44.719Z,15.57
2023-04-03T05:41:13.433Z,15.07
2023-04-03T05:43:41.986Z,14.70
2023-04-03T05:46:13.587Z,15.43
2023-04-03T05:48:43.728Z,14.07
2023-04-03T05:51:19.024Z,16.33
2023-04-03T05:53:53.339Z,14.90
2023-04-03T05:56:21.574Z,15.50
2023-04-03T05:58:49.708Z,15.53
2023-04-03T06:01:18.111Z,16.10
2023-04-03T06:03:47.060Z,14.53
2023-04-03T06:06:16.493Z,12.50
2023-04-03T06:08:45.674Z,12.43
2023-04-03T06:11:16.008Z,18.13
2023-04-03T06:13:44.070Z,15.80
2023-04-03T06:16:16.407Z,13.23
2023-04-03T06:18:44.788Z,14.83
2023-04-03T06:21:13.624Z,14.07
2023-04-03T06:23:42.902Z,13.03
2023-04-03T06:26:11.312Z,17.97
2023-04-03T06:28:40.813Z,16.83
2023-04-03T06:31:09.819Z,14.33
2023-04-03T06:33:37.880Z,13.13
2023-04-03T06:36:07.602Z,18.70
2023-04-03T06:38:37.242Z,14.90
2023-04-03T06:41:05.340Z,14.27
2023-04-03T06:43:34.829Z,19.20
2023-04-03T06:46:04.610Z,14.80
2023-04-03T06:48:32.901Z,12.87
2023-04-03T06:51:00.935Z,12.27
2023-04-03T06:53:28.959Z,11.70
2023-04-03T06:55:56.949Z,15.30
2023-04-03T06:58:25.215Z,9.83
2023-04-03T07:00:53.271Z,11.43
2023-04-03T07:03:22.780Z,8.83
2023-04-03T07:05:50.841Z,11.60
2023-04-03T07:08:18.887Z,18.00
2023-04-03T07:10:47.008Z,12.37
2023-04-03T07:13:15.210Z,17.43
2023-04-03T07:15:43.594Z,10.07
2023-04-03T07:18:11.769Z,13.93
2023-04-03T07:20:42.523Z,14.67
2023-04-03T07:23:11.444Z,11.40
2023-04-03T07:25:43.912Z,16.07
2023-04-03T07:28:12.715Z,12.13
2023-04-03T07:30:46.232Z,9.97
2023-04-03T07:33:15.400Z,10.60
2023-04-03T07:35:45.718Z,12.53
2023-04-03T07:38:14.244Z,11.07
2023-04-03T07:40:42.352Z,8.40
2023-04-03T07:43:10.402Z,12.70
2023-04-03T07:45:38.580Z,10.63
2023-04-03T07:48:07.343Z,7.67
2023-04-03T07:50:35.632Z,9.70
2023-04-03T07:53:05.825Z,7.10
2023-04-03T07:55:35.061Z,8.87
2023-04-03T07:58:03.315Z,8.00
2023-04-03T08:00:31.459Z,11.17
2023-04-03T08:02:59.540Z,6.87
2023-04-03T08:05:27.975Z,7.23
2023-04-03T08:07:56.034Z,7.87
2023-04-03T08:10:25.583Z,8.20
2023-04-03T08:12:53.661Z,10.52
2023-04-03T08:15:22.001Z,9.10
2023-04-03T08:17:50.422Z,9.88
2023-04-03T08:20:18.638Z,9.35
2023-04-03T08:22:46.734Z,9.88
2023-04-03T08:25:15.631Z,10.10
2023-04-03T08:27:45.071Z,10.43
2023-04-03T08:30:14.337Z,10.32
2023-04-03T08:32:44.188Z,7.75
2023-04-03T08:35:12.953Z,8.95
2023-04-03T08:37:42.244Z,9.90
2023-04-03T08:40:16.970Z,7.32
2023-04-03T08:43:01.028Z,10.10
2023-04-03T08:45:43.544Z,7.80
2023-04-03T08:48:16.227Z,7.90
2023-04-03T08:50:47.691Z,8.38
2023-04-03T08:53:17.925Z,8.57
2023-04-03T08:55:48.580Z,4.90
2023-04-03T08:58:21.291Z,7.88
2023-04-03T09:00:52.584Z,8.45
2023-04-03T09:03:23.105Z,6.22
2023-04-03T09:05:55.889Z,8.13
2023-04-03T09:08:27.062Z,7.18
2023-04-03T09:11:05.597Z,8.43
2023-04-03T09:13:39.642Z,6.38
2023-04-03T09:16:17.639Z,8.75
2023-04-03T09:18:50.727Z,6.80
2023-04-03T09:21:23.968Z,4.47
2023-04-03T09:23:53.705Z,8.15
2023-04-03T09:26:27.070Z,6.88
2023-04-03T09:29:00.594Z,4.65
2023-04-03T09:31:31.365Z,7.15
2023-04-03T09:34:04.844Z,2.67
2023-04-03T09:36:47.823Z,6.32
2023-04-03T09:39:18.691Z,5.72
2023-04-03T09:42:00.700Z,5.50
2023-04-03T09:44:32.457Z,4.00
2023-04-03T09:47:01.307Z,4.90
2023-04-03T09:49:29.820Z,5.45
2023-04-03T09:51:57.803Z,6.18
2023-04-03T09:54:42.234Z,4.35
2023-04-03T09:57:14.454Z,8.15
2023-04-03T09:59:48.315Z,4.93
2023-04-03T10:02:36.480Z,2.80
2023-04-03T10:05:09.877Z,1.92
2023-04-03T10:07:41.318Z,4.32
2023-04-03T10:10:21.188Z,2.50
2023-04-03T10:12:50.189Z,2.30
2023-04-03T10:15:21.101Z,4.55
2023-04-03T10:18:00.397Z,5.57
2023-04-03T10:20:37.424Z,4.28
2023-04-03T10:23:20.998Z,2.60
2023-04-03T10:26:03.486Z,3.42
2023-04-03T10:28:40.901Z,5.40
2023-04-03T10:31:15.647Z,4.90
2023-04-03T10:34:01.780Z,3.00
2023-04-03T10:36:38.323Z,2.67
2023-04-03T10:39:16.546Z,5.57
2023-04-03T10:41:58.246Z,6.95
2023-04-03T10:44:48.768Z,4.20
2023-04-03T10:47:23.309Z,4.72
2023-04-03T10:50:01.621Z,4.07
2023-04-03T10:52:39.971Z,5.63
2023-04-03T10:55:25.445Z,3.90
2023-04-03T10:57:55.225Z,4.15
2023-04-03T11:00:28.647Z,3.63
2023-04-03T11:03:01.148Z,3.72
2023-04-03T11:05:36.896Z,5.72
2023-04-03T11:08:10.771Z,3.47
2023-04-03T11:10:43.909Z,4.75
2023-04-03T11:13:17.159Z,5.50
2023-04-03T11:15:47.417Z,4.13
2023-04-03T11:18:21.425Z,3.85
2023-04-03T11:20:58.605Z,3.13
2023-04-03T11:23:32.742Z,4.38
2023-04-03T11:26:12.533Z,4.78
2023-04-03T11:28:41.803Z,5.60
2023-04-03T11:31:21.906Z,3.80
2023-04-03T11:34:00.435Z,2.72
2023-04-03T11:36:35.695Z,2.90
2023-04-03T11:39:23.611Z,5.68
2023-04-03T11:41:57.554Z,3.35
2023-04-03T11:44:37.694Z,5.47
2023-04-03T11:47:07.002Z,4.32
2023-04-03T11:50:01.683Z,2.95
2023-04-03T11:53:01.512Z,3.85
2023-04-03T11:55:46.613Z,6.05
2023-04-03T11:58:16.972Z,4.35
2023-04-03T12:01:09.642Z,4.53
2023-04-03T12:04:15.928Z,7.03
2023-04-03T12:07:00.673Z,5.72
2023-04-03T12:09:33.851Z,3.50
2023-04-03T12:12:23.039Z,5.78
2023-04-03T12:14:53.234Z,4.00
2023-04-03T12:17:27.198Z,3.80
2023-04-03T12:19:55.548Z,3.65
2023-04-03T12:22:25.229Z,4.00
2023-04-03T12:24:55.063Z,3.13
2023-04-03T12:27:35.316Z,3.70
2023-04-03T12:30:19.325Z,5.15
2023-04-03T12:33:13.933Z,5.28
2023-04-03T12:35:51.848Z,5.32
2023-04-03T12:39:05.611Z,3.83
2023-04-03T12:41:41.006Z,5.35
2023-04-03T12:44:29.090Z,3.22
2023-04-03T12:46:57.184Z,5.60
2023-04-03T12:49:37.380Z,3.92
2023-04-03T12:52:08.171Z,4.70
2023-04-03T12:54:40.719Z,3.58
2023-04-03T12:57:19.170Z,7.65
2023-04-03T12:59:48.128Z,6.78
2023-04-03T13:02:24.882Z,2.58
2023-04-03T13:04:53.991Z,4.43
2023-04-03T13:07:29.631Z,5.43
2023-04-03T13:10:00.088Z,4.97
2023-04-03T13:12:31.838Z,4.95
2023-04-03T13:15:05.214Z,4.38
2023-04-03T13:17:35.059Z,6.53
2023-04-03T13:20:15.744Z,4.95
2023-04-03T13:22:52.272Z,4.57
2023-04-03T13:25:21.813Z,5.32
2023-04-03T13:27:53.875Z,5.60
2023-04-03T13:30:30.432Z,5.30
2023-04-03T13:33:01.421Z,4.35
2023-04-03T13:35:33.425Z,3.78
2023-04-03T13:38:03.505Z,4.22
2023-04-03T13:40:41.422Z,8.52
2023-04-03T13:43:22.914Z,4.20
2023-04-03T13:46:22.512Z,4.82
2023-04-03T13:48:53.202Z,5.43
2023-04-03T13:51:25.525Z,5.60
2023-04-03T13:53:55.584Z,3.28
2023-04-03T13:56:28.478Z,3.60
2023-04-03T13:59:23.810Z,3.90
2023-04-03T14:01:55.150Z,5.10
2023-04-03T14:04:24.987Z,5.55
2023-04-03T14:06:53.588Z,5.80
2023-04-03T14:09:23.262Z,4.38
2023-04-03T14:11:55.136Z,6.50
2023-04-03T14:14:26.758Z,6.43
2023-04-03T14:16:57.700Z,5.63
2023-04-03T14:19:30.118Z,4.05
2023-04-03T14:22:00.050Z,4.18
2023-04-03T14:24:29.224Z,3.90
2023-04-03T14:26:57.652Z,3.65
2023-04-03T14:29:27.081Z,10.23
2023-04-03T14:32:07.489Z,4.38
2023-04-03T14:34:43.917Z,4.18
2023-04-03T14:37:14.732Z,4.15
2023-04-03T14:39:43.744Z,4.03
2023-04-03T14:42:15.670Z,5.60
2023-04-03T14:44:45.404Z,5.25
2023-04-03T14:47:27.449Z,3.40
2023-04-03T14:49:59.552Z,3.53
2023-04-03T14:52:30.578Z,4.47
2023-04-03T14:54:59.681Z,3.60
2023-04-03T14:57:30.446Z,6.20
2023-04-03T15:00:01.720Z,2.80
2023-04-03T15:02:32.261Z,6.43
2023-04-03T15:05:01.577Z,4.75
2023-04-03T15:07:31.651Z,6.40
2023-04-03T15:10:00.201Z,3.70
2023-04-03T15:12:28.273Z,5.32
2023-04-03T15:15:01.902Z,7.55
2023-04-03T15:17:33.049Z,4.40
2023-04-03T15:20:01.376Z,4.20
2023-04-03T15:22:29.466Z,5.65
2023-04-03T15:24:57.508Z,5.65
2023-04-03T15:27:25.540Z,6.60
2023-04-03T15:29:53.524Z,6.10
2023-04-03T15:32:21.594Z,5.90
2023-04-03T15:34:51.867Z,3.20
2023-04-03T15:37:21.717Z,5.05
2023-04-03T15:39:49.809Z,3.97
2023-04-03T15:42:19.823Z,4.50
2023-04-03T15:44:48.012Z,4.53
2023-04-03T15:47:16.318Z,4.10
2023-04-03T15:49:44.545Z,7.13
2023-04-03T15:52:13.933Z,5.47
2023-04-03T15:54:41.994Z,4.78
2023-04-03T15:57:10.217Z,2.05
2023-04-03T15:59:38.350Z,5.47
2023-04-03T16:02:09.818Z,5.47
2023-04-03T16:04:37.975Z,7.82
2023-04-03T16:07:06.833Z,3.58
2023-04-03T16:09:37.071Z,4.63
2023-04-03T16:12:05.497Z,6.10
2023-04-03T16:14:33.762Z,4.20
2023-04-03T16:17:02.488Z,4.15
2023-04-03T16:19:31.795Z,5.00
2023-04-03T16:21:59.951Z,5.00
2023-04-03T16:24:28.125Z,7.53
2023-04-03T16:26:57.701Z,6.57
2023-04-03T16:29:25.744Z,6.18
2023-04-03T16:31:54.045Z,5.97
2023-04-03T16:34:22.514Z,3.97
2023-04-03T16:36:51.151Z,7.47
2023-04-03T16:39:19.207Z,6.05
2023-04-03T16:41:47.368Z,4.00
2023-04-03T16:44:16.847Z,3.67
2023-04-03T16:46:46.218Z,5.80
2023-04-03T16:49:16.130Z,3.30
2023-04-03T16:51:44.162Z,6.28
2023-04-03T16:54:14.427Z,3.90
2023-04-03T16:56:42.505Z,3.72
2023-04-03T16:59:10.745Z,4.35
2023-04-03T17:01:40.159Z,6.18
2023-04-03T17:04:08.367Z,4.85
2023-04-03T17:06:36.726Z,2.80
2023-04-03T17:09:04.954Z,2.75
2023-04-03T17:14:06.672Z,6.65
2023-04-03T17:16:37.442Z,4.60
2023-04-03T17:19:07.464Z,4.38
2023-04-03T17:21:35.957Z,2.72
2023-04-03T17:24:09.258Z,5.53
2023-04-03T17:26:38.484Z,4.80
2023-04-03T17:29:06.707Z,8.85
2023-04-03T17:31:34.982Z,5.28
2023-04-03T17:34:03.313Z,6.68
2023-04-03T17:36:33.915Z,10.07
2023-04-03T17:39:02.457Z,7.15
2023-04-03T17:41:30.784Z,4.05
2023-04-03T17:43:59.088Z,5.03
2023-04-03T17:46:27.809Z,5.63
2023-04-03T17:48:55.883Z,6.10
2023-04-03T17:51:58.544Z,5.15
2023-04-03T17:54:26.655Z,7.72
2023-04-03T17:56:55.184Z,6.35
2023-04-03T17:59:23.318Z,6.40
2023-04-03T18:01:52.730Z,7.00
2023-04-03T18:04:20.982Z,9.13
2023-04-03T18:06:52.188Z,8.02
2023-04-03T18:09:24.641Z,7.03
2023-04-03T18:11:53.934Z,8.15
2023-04-03T18:14:25.167Z,8.55
2023-04-03T18:16:53.314Z,8.07
2023-04-03T18:19:23.857Z,7.05
2023-04-03T18:21:52.991Z,10.50
2023-04-03T18:24:23.794Z,8.35
2023-04-03T18:26:55.691Z,8.35
2023-04-03T18:29:24.431Z,5.45
2023-04-03T18:31:55.159Z,9.25
2023-04-03T18:34:23.406Z,7.35
2023-04-03T18:36:52.460Z,7.05
2023-04-03T18:39:23.985Z,7.85
2023-04-03T18:41:53.334Z,6.60
2023-04-03T18:44:23.369Z,6.85
2023-04-03T18:46:52.699Z,7.68
2023-04-03T18:49:21.828Z,6.75
2023-04-03T18:51:50.726Z,10.40
2023-04-03T18:54:20.476Z,8.23
2023-04-03T18:56:49.948Z,8.30
2023-04-03T18:59:18.168Z,8.70
2023-04-03T19:01:46.427Z,8.40
2023-04-03T19:04:15.032Z,8.07
2023-04-03T19:06:43.401Z,7.63
2023-04-03T19:09:11.769Z,9.55
2023-04-03T19:11:39.831Z,9.60
2023-04-03T19:16:40.542Z,10.13
2023-04-03T19:19:08.775Z,10.07
2023-04-03T19:21:41.045Z,12.07
2023-04-03T19:24:09.848Z,8.80
2023-04-03T19:26:37.977Z,9.90
2023-04-03T19:29:06.312Z,8.47
2023-04-03T19:31:38.012Z,12.40
2023-04-03T19:34:06.561Z,9.53
2023-04-03T19:36:36.018Z,10.00
2023-04-03T19:39:04.659Z,10.13
2023-04-03T19:41:35.344Z,8.83
2023-04-03T19:44:07.196Z,9.97
2023-04-03T19:46:37.210Z,7.97
2023-04-03T19:49:06.141Z,8.73
2023-04-03T19:51:34.304Z,10.07
2023-04-03T19:54:05.813Z,11.53
2023-04-03T19:56:34.063Z,11.07
2023-04-03T19:59:02.217Z,11.50
2023-04-03T20:01:31.004Z,8.50
2023-04-03T20:04:00.527Z,10.23
2023-04-03T20:06:28.702Z,10.43
2023-04-03T20:08:57.007Z,13.17
2023-04-03T20:11:26.755Z,9.90
2023-04-03T20:13:56.426Z,10.33
2023-04-03T20:16:25.875Z,9.90
2023-04-03T20:18:56.394Z,11.40
2023-04-03T20:21:30.765Z,10.03
2023-04-03T20:23:59.375Z,9.77
2023-04-03T20:26:29.787Z,11.63
2023-04-03T20:28:59.464Z,9.90
2023-04-03T20:31:29.068Z,11.80
2023-04-03T20:33:57.350Z,10.33
2023-04-03T20:36:28.394Z,12.77
2023-04-03T20:38:58.011Z,12.93
2023-04-03T20:41:26.153Z,10.73
2023-04-03T20:43:54.307Z,9.47
2023-04-03T20:46:25.497Z,11.67
2023-04-03T20:48:53.698Z,13.30
2023-04-03T20:51:22.705Z,11.13
2023-04-03T20:53:52.281Z,10.03
2023-04-03T20:56:22.045Z,11.50
2023-04-03T20:58:50.423Z,11.27
2023-04-03T21:01:21.515Z,10.53
2023-04-03T21:03:50.715Z,9.50
2023-04-03T21:06:56.601Z,12.10
2023-04-03T21:10:02.280Z,10.67
2023-04-03T21:13:07.876Z,11.17
2023-04-03T21:15:47.925Z,14.77
2023-04-03T21:18:34.328Z,12.27
2023-04-03T21:21:02.960Z,10.83
2023-04-03T21:23:31.272Z,11.03
2023-04-03T21:26:00.388Z,10.57
2023-04-03T21:28:28.531Z,11.70
2023-04-03T21:30:56.627Z,11.57
2023-04-03T21:33:26.156Z,12.67
2023-04-03T21:35:58.057Z,10.53
2023-04-03T21:38:27.570Z,9.90
2023-04-03T21:40:57.992Z,11.50
2023-04-03T21:43:26.761Z,11.67
2023-04-03T21:45:56.174Z,12.00
2023-04-03T21:48:26.394Z,11.90
2023-04-03T21:50:54.598Z,11.40
2023-04-03T21:53:22.822Z,13.77
2023-04-03T21:55:54.464Z,11.40
2023-04-03T21:58:22.789Z,11.33
2023-04-03T22:00:51.083Z,13.30
2023-04-03T22:03:22.325Z,12.97
2023-04-03T22:05:51.953Z,13.93
2023-04-03T22:08:20.368Z,11.20
2023-04-03T22:10:48.541Z,16.00
2023-04-03T22:13:16.587Z,11.57
2023-04-03T22:15:48.423Z,13.27
2023-04-03T22:18:16.822Z,14.47
2023-04-03T22:20:45.110Z,16.60
2023-04-03T22:23:14.628Z,16.57
2023-04-03T22:25:42.691Z,13.97
2023-04-03T22:28:10.950Z,14.77
2023-04-03T22:30:42.064Z,14.03
2023-04-03T22:33:10.421Z,13.40
2023-04-03T22:35:47.148Z,14.03
2023-04-03T22:38:16.865Z,14.80
2023-04-03T22:40:46.103Z,12.23
2023-04-03T22:43:14.334Z,14.50
2023-04-03T22:45:49.049Z,15.10
2023-04-03T22:48:17.651Z,14.27
2023-04-03T22:50:46.864Z,11.80
2023-04-03T22:53:16.638Z,14.03
2023-04-03T22:55:44.760Z,11.90
2023-04-03T22:58:12.854Z,13.47
2023-04-03T23:00:41.198Z,11.90
2023-04-03T23:03:11.012Z,12.40
2023-04-03T23:05:40.751Z,14.13
2023-04-03T23:08:08.834Z,12.30
2023-04-03T23:10:38.440Z,14.43
2023-04-03T23:13:06.621Z,10.10
2023-04-03T23:15:34.784Z,10.07
2023-04-03T23:18:03.172Z,12.90
2023-04-03T23:20:31.480Z,11.13
2023-04-03T23:22:59.533Z,8.43
2023-04-03T23:25:27.695Z,10.90
2023-04-03T23:27:57.508Z,10.87
2023-04-03T23:30:25.801Z,13.27
2023-04-03T23:32:54.005Z,10.40
2023-04-03T23:35:22.336Z,9.17
2023-04-03T23:37:50.480Z,10.07
2023-04-03T23:40:18.758Z,6.93
2023-04-03T23:42:47.658Z,9.60
2023-04-03T23:45:17.351Z,10.73
2023-04-03T23:47:45.501Z,10.30
2023-04-03T23:50:13.698Z,9.63
2023-04-03T23:52:41.833Z,8.37
2023-04-03T23:55:10.166Z,7.43
2023-04-03T23:57:38.244Z,8.40
